sensor_id;sensor_type;location;lat;lon;timestamp;temperature;humidity
32107;DHT22;18622;51.998;10.440;2023-01-26T03:17:04;0.60;99.90
32107;DHT22;18622;51.998;10.440;2023-01-26T03:19:31;0.50;99.90
32107;DHT22;18622;51.998;10.440;2023-01-26T03:22:17;0.50;99.90
32107;DHT22;18622;51.998;10.440;2023-01-26T03:25:03;0.40;99.90
32107;DHT22;18622;51.998;10.440;2023-01-26T03:27:49;0.40;99.90
32107;DHT22;18622;51.998;10.440;2023-01-26T03:30:18;0.40;99.90
32107;DHT22;18622;51.998;10.440;2023-01-26T03:32:45;0.30;99.90
32107;DHT22;18622;51.998;10.440;2023-01-26T03:35:13;0.40;99.90
32107;DHT22;18622;51.998;10.440;2023-01-26T03:37:44;0.40;99.90
32107;DHT22;18622;51.998;10.440;2023-01-26T03:40:12;0.40;99.90
32107;DHT22;18622;51.998;10.440;2023-01-26T03:42:58;0.40;99.90
32107;DHT22;18622;51.998;10.440;2023-01-26T03:45:43;0.40;99.90
32107;DHT22;18622;51.998;10.440;2023-01-26T03:48:29;0.40;99.90
32107;DHT22;18622;51.998;10.440;2023-01-26T03:51:15;0.40;99.90
32107;DHT22;18622;51.998;10.440;2023-01-26T03:54:01;0.40;99.90
32107;DHT22;18622;51.998;10.440;2023-01-26T03:56:46;0.40;99.90
32107;DHT22;18622;51.998;10.440;2023-01-26T03:59:14;0.40;99.90
32107;DHT22;18622;51.998;10.440;2023-01-26T04:32:15;0.00;99.90
32107;DHT22;18622;51.998;10.440;2023-01-26T04:34:43;0.10;99.90
32107;DHT22;18622;51.998;10.440;2023-01-26T04:37:11;0.10;99.90
32107;DHT22;18622;51.998;10.440;2023-01-26T04:39:38;0.10;99.90
32107;DHT22;18622;51.998;10.440;2023-01-26T04:42:06;0.10;99.90
32107;DHT22;18622;51.998;10.440;2023-01-26T04:44:34;0.10;99.90
32107;DHT22;18622;51.998;10.440;2023-01-26T04:47:02;0.10;99.90
32107;DHT22;18622;51.998;10.440;2023-01-26T04:49:30;0.10;99.90
32107;DHT22;18622;51.998;10.440;2023-01-26T04:51:57;0.00;99.90
32107;DHT22;18622;51.998;10.440;2023-01-26T04:54:25;0.00;99.90
32107;DHT22;18622;51.998;10.440;2023-01-26T04:56:53;-0.10;99.90
32107;DHT22;18622;51.998;10.440;2023-01-26T04:59:21;-0.10;99.90
32107;DHT22;18622;51.998;10.440;2023-01-26T05:01:49;-0.10;99.90
32107;DHT22;18622;51.998;10.440;2023-01-26T05:04:16;-0.10;99.90
32107;DHT22;18622;51.998;10.440;2023-01-26T05:06:44;-0.10;99.90
32107;DHT22;18622;51.998;10.440;2023-01-26T05:09:12;0.00;99.90
32107;DHT22;18622;51.998;10.440;2023-01-26T05:11:40;0.00;99.90
32107;DHT22;18622;51.998;10.440;2023-01-26T05:14:08;0.00;99.90
32107;DHT22;18622;51.998;10.440;2023-01-26T05:16:35;0.00;99.90
32107;DHT22;18622;51.998;10.440;2023-01-26T05:19:03;0.00;99.90
32107;DHT22;18622;51.998;10.440;2023-01-26T05:21:31;0.00;99.90
32107;DHT22;18622;51.998;10.440;2023-01-26T05:23:59;0.00;99.90
32107;DHT22;18622;51.998;10.440;2023-01-26T05:26:27;0.00;99.90
32107;DHT22;18622;51.998;10.440;2023-01-26T05:28:55;0.00;99.90
32107;DHT22;18622;51.998;10.440;2023-01-26T05:31:22;0.10;99.90
32107;DHT22;18622;51.998;10.440;2023-01-26T05:33:50;0.10;99.90
32107;DHT22;18622;51.998;10.440;2023-01-26T05:36:18;0.10;99.90
32107;DHT22;18622;51.998;10.440;2023-01-26T05:38:46;0.10;99.90
32107;DHT22;18622;51.998;10.440;2023-01-26T05:41:14;0.10;99.90
32107;DHT22;18622;51.998;10.440;2023-01-26T05:43:41;0.10;99.90
32107;DHT22;18622;51.998;10.440;2023-01-26T05:46:09;0.10;99.90
32107;DHT22;18622;51.998;10.440;2023-01-26T05:48:37;0.10;99.90
32107;DHT22;18622;51.998;10.440;2023-01-26T05:51:05;0.20;99.90
32107;DHT22;18622;51.998;10.440;2023-01-26T05:53:33;0.10;99.90
32107;DHT22;18622;51.998;10.440;2023-01-26T05:56:00;0.10;99.90
32107;DHT22;18622;51.998;10.440;2023-01-26T05:58:28;0.10;99.90
32107;DHT22;18622;51.998;10.440;2023-01-26T06:00:56;0.20;99.90
32107;DHT22;18622;51.998;10.440;2023-01-26T06:03:24;0.20;99.90
32107;DHT22;18622;51.998;10.440;2023-01-26T06:05:53;0.20;99.90
32107;DHT22;18622;51.998;10.440;2023-01-26T06:08:20;0.20;99.90
32107;DHT22;18622;51.998;10.440;2023-01-26T06:10:48;0.20;99.90
32107;DHT22;18622;51.998;10.440;2023-01-26T06:13:16;0.20;99.90
32107;DHT22;18622;51.998;10.440;2023-01-26T06:15:43;0.20;99.90
32107;DHT22;18622;51.998;10.440;2023-01-26T06:18:11;0.20;99.90
32107;DHT22;18622;51.998;10.440;2023-01-26T06:20:39;0.30;99.90
32107;DHT22;18622;51.998;10.440;2023-01-26T06:23:07;0.30;99.90
32107;DHT22;18622;51.998;10.440;2023-01-26T06:25:37;0.30;99.90
32107;DHT22;18622;51.998;10.440;2023-01-26T06:28:07;0.40;99.90
32107;DHT22;18622;51.998;10.440;2023-01-26T10:01:44;3.40;99.90
32107;DHT22;18622;51.998;10.440;2023-01-26T10:04:17;3.30;99.90
32107;DHT22;18622;51.998;10.440;2023-01-26T10:06:43;3.30;99.90
32107;DHT22;18622;51.998;10.440;2023-01-26T10:09:26;3.40;99.90
32107;DHT22;18622;51.998;10.440;2023-01-26T10:11:53;3.50;99.90
32107;DHT22;18622;51.998;10.440;2023-01-26T10:14:38;3.50;99.90
32107;DHT22;18622;51.998;10.440;2023-01-26T10:17:22;3.50;99.90
32107;DHT22;18622;51.998;10.440;2023-01-26T10:19:51;3.50;99.90
32107;DHT22;18622;51.998;10.440;2023-01-26T10:22:30;3.40;99.90
32107;DHT22;18622;51.998;10.440;2023-01-26T10:24:58;3.40;99.90
32107;DHT22;18622;51.998;10.440;2023-01-26T10:27:28;3.50;99.90
32107;DHT22;18622;51.998;10.440;2023-01-26T10:29:56;3.50;99.90
32107;DHT22;18622;51.998;10.440;2023-01-26T10:32:24;3.50;99.90
32107;DHT22;18622;51.998;10.440;2023-01-26T10:34:51;3.60;99.90
32107;DHT22;18622;51.998;10.440;2023-01-26T10:37:22;3.70;99.90
32107;DHT22;18622;51.998;10.440;2023-01-26T10:39:58;3.80;99.90
32107;DHT22;18622;51.998;10.440;2023-01-26T10:42:30;3.90;99.90
32107;DHT22;18622;51.998;10.440;2023-01-26T10:44:58;3.90;99.90
32107;DHT22;18622;51.998;10.440;2023-01-26T10:47:30;3.90;99.90
32107;DHT22;18622;51.998;10.440;2023-01-26T10:50:17;4.00;99.90
32107;DHT22;18622;51.998;10.440;2023-01-26T10:52:58;4.00;99.90
32107;DHT22;18622;51.998;10.440;2023-01-26T10:55:26;4.00;99.90
32107;DHT22;18622;51.998;10.440;2023-01-26T10:57:54;4.10;99.90
32107;DHT22;18622;51.998;10.440;2023-01-26T11:00:25;4.10;99.90
32107;DHT22;18622;51.998;10.440;2023-01-26T11:03:15;4.20;99.90
32107;DHT22;18622;51.998;10.440;2023-01-26T11:05:28;4.20;99.90
32107;DHT22;18622;51.998;10.440;2023-01-26T11:07:56;4.20;99.90
32107;DHT22;18622;51.998;10.440;2023-01-26T11:15:48;3.90;99.90
32107;DHT22;18622;51.998;10.440;2023-01-26T11:21:18;3.80;99.90
32107;DHT22;18622;51.998;10.440;2023-01-26T11:26:44;3.70;99.90
32107;DHT22;18622;51.998;10.440;2023-01-26T11:29:29;3.60;99.90
32107;DHT22;18622;51.998;10.440;2023-01-26T11:35:34;3.60;99.90
32107;DHT22;18622;51.998;10.440;2023-01-26T11:37:16;3.60;99.90
32107;DHT22;18622;51.998;10.440;2023-01-26T11:39:56;3.80;99.90
32107;DHT22;18622;51.998;10.440;2023-01-26T11:42:37;3.90;99.90
32107;DHT22;18622;51.998;10.440;2023-01-26T11:51:06;4.00;99.90
32107;DHT22;18622;51.998;10.440;2023-01-26T11:53:38;4.10;99.90
32107;DHT22;18622;51.998;10.440;2023-01-26T11:58:56;4.10;99.90
32107;DHT22;18622;51.998;10.440;2023-01-26T16:02:36;2.40;99.90
32107;DHT22;18622;51.998;10.440;2023-01-26T16:05:04;2.40;99.90
32107;DHT22;18622;51.998;10.440;2023-01-26T16:07:32;2.40;99.90
32107;DHT22;18622;51.998;10.440;2023-01-26T16:10:00;2.40;99.90
32107;DHT22;18622;51.998;10.440;2023-01-26T16:12:28;2.40;99.90
32107;DHT22;18622;51.998;10.440;2023-01-26T16:14:55;2.40;99.90
32107;DHT22;18622;51.998;10.440;2023-01-26T16:17:23;2.50;99.90
32107;DHT22;18622;51.998;10.440;2023-01-26T16:19:51;2.50;99.90
32107;DHT22;18622;51.998;10.440;2023-01-26T16:22:19;2.50;99.90
32107;DHT22;18622;51.998;10.440;2023-01-26T16:24:47;2.50;99.90
32107;DHT22;18622;51.998;10.440;2023-01-26T16:27:15;2.50;99.90
32107;DHT22;18622;51.998;10.440;2023-01-26T16:29:42;2.50;99.90
32107;DHT22;18622;51.998;10.440;2023-01-26T16:32:27;2.50;99.90
32107;DHT22;18622;51.998;10.440;2023-01-26T16:34:55;2.50;99.90
32107;DHT22;18622;51.998;10.440;2023-01-26T16:37:23;2.50;99.90
32107;DHT22;18622;51.998;10.440;2023-01-26T16:39:51;2.50;99.90
32107;DHT22;18622;51.998;10.440;2023-01-26T16:42:19;2.50;99.90
32107;DHT22;18622;51.998;10.440;2023-01-26T16:44:47;2.50;99.90
32107;DHT22;18622;51.998;10.440;2023-01-26T16:47:15;2.60;99.90
32107;DHT22;18622;51.998;10.440;2023-01-26T16:49:43;2.60;99.90
32107;DHT22;18622;51.998;10.440;2023-01-26T16:52:11;2.60;99.90
32107;DHT22;18622;51.998;10.440;2023-01-26T16:54:39;2.60;99.90
32107;DHT22;18622;51.998;10.440;2023-01-26T16:57:07;2.60;99.90
32107;DHT22;18622;51.998;10.440;2023-01-26T16:59:35;2.60;99.90
32107;DHT22;18622;51.998;10.440;2023-01-26T17:02:03;2.60;99.90
32107;DHT22;18622;51.998;10.440;2023-01-26T17:04:31;2.60;99.90
32107;DHT22;18622;51.998;10.440;2023-01-26T17:06:59;2.60;99.90
32107;DHT22;18622;51.998;10.440;2023-01-26T17:09:26;2.60;99.90
32107;DHT22;18622;51.998;10.440;2023-01-26T17:11:54;2.60;99.90
32107;DHT22;18622;51.998;10.440;2023-01-26T17:14:22;2.60;99.90
32107;DHT22;18622;51.998;10.440;2023-01-26T17:16:50;2.60;99.90
32107;DHT22;18622;51.998;10.440;2023-01-26T17:19:18;2.60;99.90
32107;DHT22;18622;51.998;10.440;2023-01-26T17:21:45;2.60;99.90
32107;DHT22;18622;51.998;10.440;2023-01-26T17:24:13;2.50;99.90
32107;DHT22;18622;51.998;10.440;2023-01-26T17:26:41;2.50;99.90
32107;DHT22;18622;51.998;10.440;2023-01-26T17:29:09;2.50;99.90
32107;DHT22;18622;51.998;10.440;2023-01-26T17:31:39;2.50;99.90
32107;DHT22;18622;51.998;10.440;2023-01-26T17:34:06;2.50;99.90
32107;DHT22;18622;51.998;10.440;2023-01-26T17:36:35;2.50;99.90
32107;DHT22;18622;51.998;10.440;2023-01-26T17:39:02;2.50;99.90
32107;DHT22;18622;51.998;10.440;2023-01-26T17:41:30;2.50;99.90
32107;DHT22;18622;51.998;10.440;2023-01-26T17:43:58;2.50;99.90
32107;DHT22;18622;51.998;10.440;2023-01-26T17:46:26;2.50;99.90
32107;DHT22;18622;51.998;10.440;2023-01-26T17:48:53;2.50;99.90
32107;DHT22;18622;51.998;10.440;2023-01-26T17:51:21;2.50;99.90
32107;DHT22;18622;51.998;10.440;2023-01-26T17:53:49;2.50;99.90
32107;DHT22;18622;51.998;10.440;2023-01-26T17:56:19;2.60;99.90
32107;DHT22;18622;51.998;10.440;2023-01-26T17:58:49;2.60;99.90
32107;DHT22;18622;51.998;10.440;2023-01-26T18:01:18;2.60;99.90
32107;DHT22;18622;51.998;10.440;2023-01-26T18:03:46;2.60;99.90
32107;DHT22;18622;51.998;10.440;2023-01-26T18:06:14;2.60;99.90
32107;DHT22;18622;51.998;10.440;2023-01-26T18:08:42;2.60;99.90
32107;DHT22;18622;51.998;10.440;2023-01-26T18:11:12;2.60;99.90
32107;DHT22;18622;51.998;10.440;2023-01-26T18:13:40;2.60;99.90
32107;DHT22;18622;51.998;10.440;2023-01-26T18:16:09;2.60;99.90
32107;DHT22;18622;51.998;10.440;2023-01-26T18:18:38;2.60;99.90
32107;DHT22;18622;51.998;10.440;2023-01-26T18:21:11;2.60;99.90
32107;DHT22;18622;51.998;10.440;2023-01-26T18:23:38;2.60;99.90
32107;DHT22;18622;51.998;10.440;2023-01-26T18:26:06;2.60;99.90
32107;DHT22;18622;51.998;10.440;2023-01-26T18:28:34;2.70;99.90
32107;DHT22;18622;51.998;10.440;2023-01-26T18:31:14;2.70;99.90
32107;DHT22;18622;51.998;10.440;2023-01-26T18:33:42;2.70;99.90
32107;DHT22;18622;51.998;10.440;2023-01-26T18:36:11;2.70;99.90
32107;DHT22;18622;51.998;10.440;2023-01-26T18:38:47;2.70;99.90
32107;DHT22;18622;51.998;10.440;2023-01-26T18:41:14;2.70;99.90
32107;DHT22;18622;51.998;10.440;2023-01-26T18:43:43;2.80;99.90
32107;DHT22;18622;51.998;10.440;2023-01-26T18:46:12;2.80;99.90
32107;DHT22;18622;51.998;10.440;2023-01-26T18:48:41;2.80;99.90
32107;DHT22;18622;51.998;10.440;2023-01-26T18:51:09;2.80;99.90
32107;DHT22;18622;51.998;10.440;2023-01-26T18:53:37;2.80;99.90
32107;DHT22;18622;51.998;10.440;2023-01-26T18:56:07;2.80;99.90
32107;DHT22;18622;51.998;10.440;2023-01-26T18:58:36;2.80;99.90
32107;DHT22;18622;51.998;10.440;2023-01-26T19:01:05;2.80;99.90
32107;DHT22;18622;51.998;10.440;2023-01-26T19:03:35;2.90;99.90
32107;DHT22;18622;51.998;10.440;2023-01-26T19:06:04;2.90;99.90
32107;DHT22;18622;51.998;10.440;2023-01-26T19:08:32;2.90;99.90
32107;DHT22;18622;51.998;10.440;2023-01-26T19:11:05;2.90;99.90
32107;DHT22;18622;51.998;10.440;2023-01-26T19:13:32;2.90;99.90
32107;DHT22;18622;51.998;10.440;2023-01-26T19:16:01;2.90;99.90
32107;DHT22;18622;51.998;10.440;2023-01-26T19:18:28;3.00;99.90
32107;DHT22;18622;51.998;10.440;2023-01-26T19:21:00;3.00;99.90
32107;DHT22;18622;51.998;10.440;2023-01-26T19:23:29;3.00;99.90
32107;DHT22;18622;51.998;10.440;2023-01-26T19:25:57;3.10;99.90
32107;DHT22;18622;51.998;10.440;2023-01-26T19:28:25;3.10;99.90
32107;DHT22;18622;51.998;10.440;2023-01-26T19:31:00;3.10;99.90
32107;DHT22;18622;51.998;10.440;2023-01-26T19:33:23;3.10;99.90
32107;DHT22;18622;51.998;10.440;2023-01-26T19:35:54;3.10;99.90
32107;DHT22;18622;51.998;10.440;2023-01-26T19:38:22;3.10;99.90
32107;DHT22;18622;51.998;10.440;2023-01-26T19:40:51;3.10;99.90
32107;DHT22;18622;51.998;10.440;2023-01-26T19:43:19;3.10;99.90
32107;DHT22;18622;51.998;10.440;2023-01-26T19:45:52;3.10;99.90
32107;DHT22;18622;51.998;10.440;2023-01-26T19:48:20;3.20;99.90
32107;DHT22;18622;51.998;10.440;2023-01-26T19:51:05;3.20;99.90
32107;DHT22;18622;51.998;10.440;2023-01-26T19:53:36;3.20;99.90
32107;DHT22;18622;51.998;10.440;2023-01-26T19:56:09;3.20;99.90
32107;DHT22;18622;51.998;10.440;2023-01-26T19:58:37;3.20;99.90
32107;DHT22;18622;51.998;10.440;2023-01-26T20:01:07;3.20;99.90
32107;DHT22;18622;51.998;10.440;2023-01-26T20:03:35;3.30;99.90
32107;DHT22;18622;51.998;10.440;2023-01-26T20:06:04;3.30;99.90
32107;DHT22;18622;51.998;10.440;2023-01-26T20:08:32;3.30;99.90
32107;DHT22;18622;51.998;10.440;2023-01-26T20:11:04;3.40;99.90
32107;DHT22;18622;51.998;10.440;2023-01-26T20:13:33;3.40;99.90
32107;DHT22;18622;51.998;10.440;2023-01-26T20:16:01;3.40;99.90
32107;DHT22;18622;51.998;10.440;2023-01-26T20:18:29;3.40;99.90
32107;DHT22;18622;51.998;10.440;2023-01-26T20:20:57;3.40;99.90
32107;DHT22;18622;51.998;10.440;2023-01-26T20:23:25;3.30;99.90
32107;DHT22;18622;51.998;10.440;2023-01-26T20:26:04;3.30;99.90
32107;DHT22;18622;51.998;10.440;2023-01-26T20:28:31;3.30;99.90
32107;DHT22;18622;51.998;10.440;2023-01-26T20:31:16;3.30;99.90
32107;DHT22;18622;51.998;10.440;2023-01-26T20:33:46;3.30;99.90
32107;DHT22;18622;51.998;10.440;2023-01-26T20:36:17;3.30;99.90
32107;DHT22;18622;51.998;10.440;2023-01-26T20:38:45;3.30;99.90
32107;DHT22;18622;51.998;10.440;2023-01-26T20:41:16;3.30;99.90
32107;DHT22;18622;51.998;10.440;2023-01-26T20:43:44;3.30;99.90
32107;DHT22;18622;51.998;10.440;2023-01-26T20:46:13;3.30;99.90
32107;DHT22;18622;51.998;10.440;2023-01-26T20:48:43;3.30;99.90
32107;DHT22;18622;51.998;10.440;2023-01-26T20:51:16;3.30;99.90
32107;DHT22;18622;51.998;10.440;2023-01-26T20:53:46;3.30;99.90
32107;DHT22;18622;51.998;10.440;2023-01-26T20:56:15;3.30;99.90
32107;DHT22;18622;51.998;10.440;2023-01-26T20:58:43;3.30;99.90
32107;DHT22;18622;51.998;10.440;2023-01-26T21:01:13;3.20;99.90
32107;DHT22;18622;51.998;10.440;2023-01-26T21:03:41;3.20;99.90
32107;DHT22;18622;51.998;10.440;2023-01-26T21:06:11;3.30;99.90
32107;DHT22;18622;51.998;10.440;2023-01-26T21:08:39;3.30;99.90
32107;DHT22;18622;51.998;10.440;2023-01-26T21:11:10;3.30;99.90
32107;DHT22;18622;51.998;10.440;2023-01-26T21:13:38;3.20;99.90
32107;DHT22;18622;51.998;10.440;2023-01-26T21:16:11;3.20;99.90
32107;DHT22;18622;51.998;10.440;2023-01-26T21:18:39;3.20;99.90
32107;DHT22;18622;51.998;10.440;2023-01-26T21:21:10;3.30;99.90
32107;DHT22;18622;51.998;10.440;2023-01-26T21:23:37;3.30;99.90
32107;DHT22;18622;51.998;10.440;2023-01-26T21:26:10;3.30;99.90
32107;DHT22;18622;51.998;10.440;2023-01-26T21:28:38;3.30;99.90
32107;DHT22;18622;51.998;10.440;2023-01-26T21:31:11;3.30;99.90
32107;DHT22;18622;51.998;10.440;2023-01-26T21:33:41;3.40;99.90
32107;DHT22;18622;51.998;10.440;2023-01-26T21:36:15;3.30;99.90
32107;DHT22;18622;51.998;10.440;2023-01-26T21:38:45;3.40;99.90
32107;DHT22;18622;51.998;10.440;2023-01-26T21:41:16;3.40;99.90
32107;DHT22;18622;51.998;10.440;2023-01-26T21:44:04;3.40;99.90
32107;DHT22;18622;51.998;10.440;2023-01-26T21:46:31;3.40;99.90
32107;DHT22;18622;51.998;10.440;2023-01-26T21:48:59;3.40;99.90
32107;DHT22;18622;51.998;10.440;2023-01-26T21:51:27;3.50;99.90
32107;DHT22;18622;51.998;10.440;2023-01-26T21:54:13;3.50;99.90
32107;DHT22;18622;51.998;10.440;2023-01-26T21:56:41;3.50;99.90
32107;DHT22;18622;51.998;10.440;2023-01-26T21:59:11;3.50;99.90
